createdAt,value
2022-11-20T00:00:00.595Z,89.2
2022-11-20T00:01:00.756Z,89.2
2022-11-20T00:02:00.941Z,89.2
2022-11-20T00:03:01.046Z,89.3
2022-11-20T00:04:01.203Z,89.3
2022-11-20T00:05:00.332Z,89.3
2022-11-20T00:06:00.465Z,89.3
2022-11-20T00:07:00.665Z,89.4
2022-11-20T00:08:00.771Z,89.6
2022-11-20T00:09:00.988Z,89.6
2022-11-20T00:10:01.096Z,89.5
2022-11-20T00:11:01.228Z,89.3
2022-11-20T00:12:00.364Z,89.2
2022-11-20T00:13:00.514Z,89.1
2022-11-20T00:14:00.671Z,89
2022-11-20T00:15:00.821Z,88.9
2022-11-20T00:16:00.957Z,88.9
2022-11-20T00:17:01.103Z,89
2022-11-20T00:18:01.246Z,89.1
2022-11-20T00:19:00.414Z,89.2
2022-11-20T00:20:00.548Z,89.2
2022-11-20T00:21:00.701Z,89.2
2022-11-20T00:22:00.846Z,89
2022-11-20T00:23:01.013Z,89
2022-11-20T00:24:01.141Z,88.9
2022-11-20T00:25:00.289Z,88.8
2022-11-20T00:26:00.437Z,88.9
2022-11-20T00:27:00.589Z,88.9
2022-11-20T00:28:00.743Z,88.9
2022-11-20T00:29:00.905Z,88.8
2022-11-20T00:30:01.051Z,88.9
2022-11-20T00:31:01.187Z,89
2022-11-20T00:32:00.328Z,89
2022-11-20T00:33:00.490Z,88.9
2022-11-20T00:34:00.650Z,88.9
2022-11-20T00:35:00.778Z,89
2022-11-20T00:36:00.926Z,89
2022-11-20T00:37:01.081Z,88.9
2022-11-20T00:38:01.233Z,88.7
2022-11-20T00:39:00.374Z,88.7
2022-11-20T00:40:00.515Z,88.6
2022-11-20T00:41:00.667Z,88.6
2022-11-20T00:42:00.821Z,88.5
2022-11-20T00:43:00.962Z,88.5
2022-11-20T00:44:01.122Z,88.4
2022-11-20T00:45:01.249Z,88.4
2022-11-20T00:46:00.415Z,88.5
2022-11-20T00:47:00.549Z,88.5
2022-11-20T00:48:00.689Z,88.6
2022-11-20T00:49:00.854Z,88.8
2022-11-20T00:50:00.980Z,89
2022-11-20T00:51:01.135Z,88.9
2022-11-20T00:52:00.273Z,88.7
2022-11-20T00:53:00.421Z,88.7
2022-11-20T00:54:00.592Z,88.7
2022-11-20T00:55:00.705Z,88.7
2022-11-20T00:56:00.860Z,88.5
2022-11-20T00:57:01.005Z,88.4
2022-11-20T00:58:04.371Z,88.4
2022-11-20T00:59:00.326Z,88.4
2022-11-20T01:00:00.455Z,88.5
2022-11-20T01:01:00.645Z,88.6
2022-11-20T01:02:00.744Z,88.5
2022-11-20T01:03:00.911Z,88.5
2022-11-20T01:04:01.090Z,88.5
2022-11-20T01:05:01.212Z,88.5
2022-11-20T01:06:00.357Z,88.5
2022-11-20T01:07:00.542Z,88.6
2022-11-20T01:08:00.651Z,88.6
2022-11-20T01:09:00.809Z,88.7
2022-11-20T01:10:00.960Z,88.7
2022-11-20T01:11:01.099Z,88.7
2022-11-20T01:12:01.248Z,88.6
2022-11-20T01:13:00.395Z,88.7
2022-11-20T01:14:00.558Z,88.8
2022-11-20T01:15:00.677Z,89
2022-11-20T01:16:00.823Z,89
2022-11-20T01:17:00.980Z,88.9
2022-11-20T01:18:01.122Z,88.9
2022-11-20T01:19:00.269Z,89
2022-11-20T01:20:00.404Z,89.2
2022-11-20T01:21:00.554Z,89.2
2022-11-20T01:22:00.694Z,89.1
2022-11-20T01:23:00.858Z,89
2022-11-20T01:24:01.010Z,89
2022-11-20T01:25:01.151Z,88.9
2022-11-20T01:26:00.302Z,88.8
2022-11-20T01:27:00.454Z,88.7
2022-11-20T01:28:00.593Z,88.7
2022-11-20T01:29:00.758Z,88.8
2022-11-20T01:30:01.301Z,89
2022-11-20T01:31:01.038Z,88.9
2022-11-20T01:32:01.172Z,88.9
2022-11-20T01:33:00.325Z,88.8
2022-11-20T01:34:00.507Z,88.7
2022-11-20T01:35:00.630Z,88.6
2022-11-20T01:36:00.768Z,88.5
2022-11-20T01:37:00.917Z,88.5
2022-11-20T01:38:01.077Z,88.5
2022-11-20T01:39:01.251Z,88.7
2022-11-20T01:40:00.369Z,88.9
2022-11-20T01:41:00.500Z,88.9
2022-11-20T01:42:01.874Z,88.9
2022-11-20T01:43:00.792Z,88.9
2022-11-20T01:44:00.961Z,88.8
2022-11-20T01:45:01.095Z,88.8
2022-11-20T01:46:01.236Z,88.8
2022-11-20T01:47:00.391Z,88.8
2022-11-20T01:48:00.535Z,88.8
2022-11-20T01:49:00.690Z,88.7
2022-11-20T01:50:00.835Z,88.6
2022-11-20T01:51:00.984Z,89
2022-11-20T01:52:01.126Z,89.4
2022-11-20T01:53:00.303Z,89.5
2022-11-20T01:54:00.435Z,89.4
2022-11-20T01:55:00.578Z,89.3
2022-11-20T01:56:00.730Z,89.3
2022-11-20T01:57:00.877Z,89.5
2022-11-20T01:58:01.041Z,89.6
2022-11-20T01:59:01.156Z,89.6
2022-11-20T02:00:00.296Z,89.6
2022-11-20T02:01:00.570Z,89.8
2022-11-20T02:02:00.581Z,89.9
2022-11-20T02:03:00.729Z,89.9
2022-11-20T02:04:00.886Z,90
2022-11-20T02:05:01.032Z,90
2022-11-20T02:06:01.183Z,89.9
2022-11-20T02:07:00.442Z,89.7
2022-11-20T02:08:00.466Z,89.6
2022-11-20T02:09:00.608Z,89.6
2022-11-20T02:10:00.763Z,89.8
2022-11-20T02:11:00.921Z,89.8
2022-11-20T02:12:01.062Z,89.6
2022-11-20T02:13:01.244Z,89.6
2022-11-20T02:14:00.364Z,89.6
2022-11-20T02:15:00.507Z,89.7
2022-11-20T02:16:00.672Z,89.9
2022-11-20T02:17:00.837Z,89.8
2022-11-20T02:18:00.958Z,89.6
2022-11-20T02:19:01.127Z,89.5
2022-11-20T02:20:00.261Z,89.4
2022-11-20T02:21:00.410Z,89.4
2022-11-20T02:22:00.575Z,89.5
2022-11-20T02:23:00.703Z,89.6
2022-11-20T02:24:00.850Z,89.8
2022-11-20T02:25:00.997Z,89.9
2022-11-20T02:26:01.135Z,90
2022-11-20T02:27:00.311Z,90.1
2022-11-20T02:28:00.440Z,90.1
2022-11-20T02:29:00.583Z,90.1
2022-11-20T02:30:00.732Z,90.1
2022-11-20T02:31:00.883Z,90.1
2022-11-20T02:32:01.041Z,90.2
2022-11-20T02:33:01.192Z,90.3
2022-11-20T02:34:00.321Z,90.1
2022-11-20T02:35:00.461Z,90
2022-11-20T02:36:00.603Z,89.9
2022-11-20T02:37:00.759Z,89.7
2022-11-20T02:38:00.919Z,89.5
2022-11-20T02:39:01.059Z,89.5
2022-11-20T02:40:01.198Z,89.3
2022-11-20T02:41:00.345Z,89.2
2022-11-20T02:42:00.498Z,89.1
2022-11-20T02:43:00.641Z,89
2022-11-20T02:44:00.807Z,88.8
2022-11-20T02:45:00.941Z,88.8
2022-11-20T02:46:01.090Z,88.8
2022-11-20T02:47:01.245Z,88.7
2022-11-20T02:48:00.373Z,88.6
2022-11-20T02:49:00.553Z,88.5
2022-11-20T02:50:00.677Z,88.5
2022-11-20T02:51:00.830Z,88.4
2022-11-20T02:52:00.980Z,88.6
2022-11-20T02:53:01.131Z,89
2022-11-20T02:54:00.286Z,89.4
2022-11-20T02:55:00.424Z,89.6
2022-11-20T02:56:00.579Z,89.9
2022-11-20T02:57:00.727Z,90
2022-11-20T02:58:00.900Z,90.1
2022-11-20T02:59:01.046Z,90.1
2022-11-20T03:00:01.190Z,90.3
2022-11-20T03:01:00.359Z,90.3
2022-11-20T03:02:00.484Z,90.4
2022-11-20T03:03:00.623Z,90.4
2022-11-20T03:04:00.784Z,90.4
2022-11-20T03:05:00.936Z,90.3
2022-11-20T03:06:01.065Z,90.1
2022-11-20T03:07:01.308Z,90
2022-11-20T03:08:00.360Z,90
2022-11-20T03:09:00.510Z,89.9
2022-11-20T03:10:00.676Z,89.9
2022-11-20T03:11:00.806Z,89.8
2022-11-20T03:12:00.961Z,89.6
2022-11-20T03:13:01.095Z,89.5
2022-11-20T03:14:01.252Z,89.6
2022-11-20T03:15:00.408Z,89.7
2022-11-20T03:16:00.533Z,89.8
2022-11-20T03:17:00.693Z,89.9
2022-11-20T03:18:00.816Z,89.9
2022-11-20T03:19:00.968Z,90
2022-11-20T03:20:01.107Z,90.2
2022-11-20T03:21:01.274Z,90.2
2022-11-20T03:22:00.410Z,90.1
2022-11-20T03:23:00.549Z,90.1
2022-11-20T03:24:00.695Z,90.2
2022-11-20T03:25:00.832Z,90.1
2022-11-20T03:26:01.017Z,89.8
2022-11-20T03:27:01.141Z,89.6
2022-11-20T03:28:00.283Z,89.7
2022-11-20T03:29:00.436Z,90
2022-11-20T03:30:00.573Z,90.2
2022-11-20T03:31:00.745Z,90.3
2022-11-20T03:32:00.865Z,90.5
2022-11-20T03:33:01.021Z,90.6
2022-11-20T03:34:01.151Z,90.6
2022-11-20T03:35:00.301Z,90.5
2022-11-20T03:36:00.466Z,90.4
2022-11-20T03:37:00.642Z,90.2
2022-11-20T03:38:00.750Z,90.1
2022-11-20T03:39:00.892Z,90
2022-11-20T03:40:01.059Z,89.8
2022-11-20T03:41:01.184Z,89.7
2022-11-20T03:42:00.340Z,89.6
2022-11-20T03:43:00.502Z,89.5
2022-11-20T03:44:00.618Z,89.6
2022-11-20T03:45:00.770Z,89.6
2022-11-20T03:46:00.926Z,89.5
2022-11-20T03:47:01.070Z,89.4
2022-11-20T03:48:01.224Z,89.2
2022-11-20T03:49:00.356Z,89.1
2022-11-20T03:50:00.503Z,89
2022-11-20T03:51:00.654Z,89
2022-11-20T03:52:00.795Z,89
2022-11-20T03:53:00.971Z,88.9
2022-11-20T03:54:01.105Z,88.7
2022-11-20T03:55:01.247Z,88.6
2022-11-20T03:56:00.393Z,88.6
2022-11-20T03:57:00.557Z,88.6
2022-11-20T03:58:00.713Z,88.5
2022-11-20T03:59:00.848Z,88.5
2022-11-20T04:00:00.997Z,88.4
2022-11-20T04:01:01.135Z,88.4
2022-11-20T04:02:00.333Z,88.4
2022-11-20T04:03:00.453Z,88.4
2022-11-20T04:04:00.625Z,88.4
2022-11-20T04:05:00.724Z,88.3
2022-11-20T04:06:00.869Z,88.2
2022-11-20T04:07:01.027Z,88.1
2022-11-20T04:08:01.163Z,88.1
2022-11-20T04:09:00.337Z,88.2
2022-11-20T04:10:00.456Z,88.2
2022-11-20T04:11:00.602Z,88.2
2022-11-20T04:12:00.737Z,88.4
2022-11-20T04:13:00.885Z,88.5
2022-11-20T04:14:01.052Z,88.8
2022-11-20T04:15:01.193Z,89
2022-11-20T04:16:00.339Z,89.2
2022-11-20T04:17:00.505Z,89.4
2022-11-20T04:18:00.639Z,89.6
2022-11-20T04:19:00.790Z,89.5
2022-11-20T04:20:00.958Z,89.5
2022-11-20T04:21:01.087Z,89.6
2022-11-20T04:22:01.244Z,89.7
2022-11-20T04:23:00.379Z,89.8
2022-11-20T04:24:00.539Z,89.6
2022-11-20T04:25:00.707Z,89.7
2022-11-20T04:26:00.839Z,89.8
2022-11-20T04:27:00.987Z,89.9
2022-11-20T04:28:01.131Z,89.9
2022-11-20T04:29:00.279Z,89.9
2022-11-20T04:30:00.440Z,89.9
2022-11-20T04:31:00.583Z,89.7
2022-11-20T04:32:00.726Z,89.6
2022-11-20T04:33:00.911Z,89.5
2022-11-20T04:34:01.026Z,89.4
2022-11-20T04:35:01.184Z,89.3
2022-11-20T04:36:00.313Z,89.3
2022-11-20T04:37:00.459Z,89.2
2022-11-20T04:38:00.624Z,89.1
2022-11-20T04:39:00.749Z,89.2
2022-11-20T04:40:00.897Z,89.3
2022-11-20T04:41:01.040Z,89.2
2022-11-20T04:42:01.194Z,89.1
2022-11-20T04:43:00.372Z,88.9
2022-11-20T04:44:00.834Z,88.7
2022-11-20T04:45:00.633Z,88.7
2022-11-20T04:46:00.786Z,88.8
2022-11-20T04:47:00.934Z,88.8
2022-11-20T04:48:01.091Z,88.7
2022-11-20T04:49:01.241Z,88.5
2022-11-20T04:50:00.459Z,88.5
2022-11-20T04:51:00.519Z,88.6
2022-11-20T04:52:00.677Z,88.9
2022-11-20T04:53:00.826Z,89.1
2022-11-20T04:54:00.963Z,89.3
2022-11-20T04:55:01.107Z,89.5
2022-11-20T04:56:01.254Z,89.7
2022-11-20T04:57:00.404Z,89.7
2022-11-20T04:58:00.587Z,89.8
2022-11-20T04:59:00.703Z,89.8
2022-11-20T05:00:00.854Z,89.7
2022-11-20T05:01:00.998Z,89.8
2022-11-20T05:02:01.220Z,89.7
2022-11-20T05:03:00.307Z,89.7
2022-11-20T05:04:00.437Z,89.7
2022-11-20T05:05:00.585Z,89.7
2022-11-20T05:06:00.733Z,89.7
2022-11-20T05:07:00.898Z,89.8
2022-11-20T05:08:01.052Z,89.7
2022-11-20T05:09:01.197Z,89.6
2022-11-20T05:10:00.327Z,89.4
2022-11-20T05:11:00.476Z,89.3
2022-11-20T05:12:00.610Z,89.1
2022-11-20T05:13:00.763Z,88.9
2022-11-20T05:14:00.940Z,88.8
2022-11-20T05:15:01.066Z,88.8
2022-11-20T05:16:01.217Z,88.7
2022-11-20T05:17:00.358Z,88.6
2022-11-20T05:18:00.507Z,88.7
2022-11-20T05:19:00.668Z,88.7
2022-11-20T05:20:00.802Z,88.7
2022-11-20T05:21:00.966Z,88.5
2022-11-20T05:22:01.083Z,88.3
2022-11-20T05:23:01.246Z,88.1
2022-11-20T05:24:00.396Z,88
2022-11-20T05:25:00.543Z,88
2022-11-20T05:26:00.695Z,88
2022-11-20T05:27:00.831Z,88
2022-11-20T05:28:00.977Z,88
2022-11-20T05:29:01.141Z,88
2022-11-20T05:30:00.276Z,88
2022-11-20T05:31:00.423Z,88
2022-11-20T05:32:00.569Z,88
2022-11-20T05:33:00.720Z,88
2022-11-20T05:34:00.886Z,88.1
2022-11-20T05:35:01.038Z,88.3
2022-11-20T05:36:01.162Z,88.3
2022-11-20T05:37:00.324Z,88.4
2022-11-20T05:38:00.475Z,88.5
2022-11-20T05:39:01.925Z,88.7
2022-11-20T05:40:00.752Z,88.9
2022-11-20T05:41:00.919Z,89.1
2022-11-20T05:42:01.050Z,89.4
2022-11-20T05:43:01.184Z,89.5
2022-11-20T05:44:00.346Z,89.6
2022-11-20T05:45:00.495Z,89.7
2022-11-20T05:46:00.659Z,89.6
2022-11-20T05:47:00.783Z,89.5
2022-11-20T05:48:00.943Z,89.6
2022-11-20T05:49:01.082Z,89.6
2022-11-20T05:50:01.225Z,89.6
2022-11-20T05:51:00.386Z,89.8
2022-11-20T05:52:00.510Z,89.8
2022-11-20T05:53:00.688Z,89.8
2022-11-20T05:54:00.801Z,89.8
2022-11-20T05:55:00.958Z,89.8
2022-11-20T05:56:01.120Z,89.7
2022-11-20T05:57:01.244Z,89.5
2022-11-20T05:58:00.400Z,89.4
2022-11-20T05:59:00.558Z,89.3
2022-11-20T06:00:00.702Z,89.2
2022-11-20T06:01:00.899Z,89.1
2022-11-20T06:02:01.020Z,89
2022-11-20T06:03:01.253Z,88.9
2022-11-20T06:04:00.304Z,88.8
2022-11-20T06:05:00.456Z,88.8
2022-11-20T06:06:00.623Z,88.7
2022-11-20T06:07:00.805Z,88.6
2022-11-20T06:08:00.921Z,88.6
2022-11-20T06:09:01.038Z,88.6
2022-11-20T06:10:01.201Z,88.6
2022-11-20T06:11:00.362Z,88.6
2022-11-20T06:12:00.524Z,88.5
2022-11-20T06:13:00.642Z,88.5
2022-11-20T06:14:00.793Z,88.4
2022-11-20T06:15:00.934Z,88.5
2022-11-20T06:16:01.079Z,88.5
2022-11-20T06:17:01.258Z,88.6
2022-11-20T06:18:00.378Z,88.8
2022-11-20T06:19:00.519Z,89.2
2022-11-20T06:20:00.671Z,89.4
2022-11-20T06:21:00.824Z,89.5
2022-11-20T06:22:00.985Z,89.7
2022-11-20T06:23:01.115Z,89.8
2022-11-20T06:24:01.316Z,89.8
2022-11-20T06:25:00.395Z,89.8
2022-11-20T06:26:00.545Z,89.9
2022-11-20T06:27:00.717Z,89.9
2022-11-20T06:28:00.841Z,89.9
2022-11-20T06:29:00.987Z,89.9
2022-11-20T06:30:01.139Z,90
2022-11-20T06:31:00.289Z,89.9
2022-11-20T06:32:00.440Z,90
2022-11-20T06:33:00.602Z,89.9
2022-11-20T06:34:00.723Z,89.6
2022-11-20T06:35:00.870Z,89.5
2022-11-20T06:36:03.436Z,89.5
2022-11-20T06:37:01.152Z,89.5
2022-11-20T06:38:00.320Z,89.5
2022-11-20T06:39:00.454Z,89.5
2022-11-20T06:40:00.593Z,89.5
2022-11-20T06:41:00.747Z,89.7
2022-11-20T06:42:00.896Z,89.8
2022-11-20T06:43:01.051Z,89.8
2022-11-20T06:44:01.187Z,89.9
2022-11-20T06:45:00.321Z,89.9
2022-11-20T06:46:00.475Z,90
2022-11-20T06:47:00.623Z,90
2022-11-20T06:48:00.805Z,90.1
2022-11-20T06:49:00.916Z,90
2022-11-20T06:50:01.066Z,89.9
2022-11-20T06:51:01.223Z,89.8
2022-11-20T06:52:00.368Z,89.6
2022-11-20T06:53:00.540Z,89.5
2022-11-20T06:54:00.666Z,89.6
2022-11-20T06:55:00.821Z,89.7
2022-11-20T06:56:00.965Z,89.6
2022-11-20T06:57:01.122Z,89.5
2022-11-20T06:58:00.292Z,89.5
2022-11-20T06:59:00.404Z,89.6
2022-11-20T07:00:00.561Z,89.8
2022-11-20T07:01:00.799Z,89.9
2022-11-20T07:02:00.855Z,89.9
2022-11-20T07:03:01.012Z,89.8
2022-11-20T07:04:01.146Z,89.6
2022-11-20T07:05:00.295Z,89.6
2022-11-20T07:06:00.437Z,89.8
2022-11-20T07:07:00.668Z,90
2022-11-20T07:08:00.748Z,90.2
2022-11-20T07:09:00.886Z,90.5
2022-11-20T07:10:01.028Z,90.5
2022-11-20T07:11:01.163Z,90.6
2022-11-20T07:12:00.334Z,90.7
2022-11-20T07:13:00.464Z,90.7
2022-11-20T07:14:00.605Z,90.8
2022-11-20T07:15:00.758Z,90.8
2022-11-20T07:16:00.892Z,90.8
2022-11-20T07:17:01.061Z,90.8
2022-11-20T07:18:01.216Z,90.8
2022-11-20T07:19:00.331Z,90.6
2022-11-20T07:20:00.484Z,90.7
2022-11-20T07:21:00.626Z,90.6
2022-11-20T07:22:00.779Z,90.5
2022-11-20T07:23:00.941Z,90.4
2022-11-20T07:24:01.078Z,90.4
2022-11-20T07:25:01.247Z,90.3
2022-11-20T07:26:00.352Z,90.2
2022-11-20T07:27:00.504Z,90.2
2022-11-20T07:28:00.659Z,90.1
2022-11-20T07:29:00.804Z,90.2
2022-11-20T07:30:00.966Z,90.4
2022-11-20T07:31:01.112Z,90.5
2022-11-20T07:32:00.288Z,90.3
2022-11-20T07:33:00.387Z,90.2
2022-11-20T07:34:00.534Z,90.2
2022-11-20T07:35:00.689Z,90.2
2022-11-20T07:36:00.848Z,90.3
2022-11-20T07:37:02.948Z,90.3
2022-11-20T07:38:01.166Z,90.5
2022-11-20T07:39:00.295Z,90.5
2022-11-20T07:40:00.437Z,90.6
2022-11-20T07:41:00.590Z,90.7
2022-11-20T07:42:00.726Z,90.6
2022-11-20T07:43:00.899Z,90.6
2022-11-20T07:44:01.021Z,90.7
2022-11-20T07:45:01.173Z,90.8
2022-11-20T07:46:00.323Z,90.9
2022-11-20T07:47:00.474Z,91
2022-11-20T07:48:00.642Z,91
2022-11-20T07:49:00.775Z,90.9
2022-11-20T07:50:00.915Z,90.9
2022-11-20T07:51:01.056Z,90.8
2022-11-20T07:52:04.863Z,90.8
2022-11-20T07:53:00.375Z,90.7
2022-11-20T07:54:00.496Z,90.6
2022-11-20T07:55:00.656Z,90.5
2022-11-20T07:56:00.817Z,90.4
2022-11-20T07:57:00.949Z,90.3
2022-11-20T07:58:01.133Z,90.3
2022-11-20T07:59:01.264Z,90.4
2022-11-20T08:00:00.397Z,90.4
2022-11-20T08:01:00.698Z,90.5
2022-11-20T08:02:00.679Z,90.6
2022-11-20T08:03:00.852Z,90.6
2022-11-20T08:04:00.971Z,90.7
2022-11-20T08:05:01.133Z,90.7
2022-11-20T08:06:00.274Z,90.6
2022-11-20T08:07:00.464Z,90.6
2022-11-20T08:08:00.578Z,90.7
2022-11-20T08:09:00.731Z,90.7
2022-11-20T08:10:00.871Z,90.7
2022-11-20T08:11:01.018Z,90.7
2022-11-20T08:12:01.164Z,90.8
2022-11-20T08:13:00.301Z,90.8
2022-11-20T08:14:00.466Z,90.9
2022-11-20T08:15:00.602Z,90.8
2022-11-20T08:16:00.744Z,90.8
2022-11-20T08:17:00.921Z,90.8
2022-11-20T08:18:28.853Z,90.8
2022-11-20T08:19:01.220Z,90.7
2022-11-20T08:20:00.367Z,90.7
2022-11-20T08:21:00.512Z,90.8
2022-11-20T08:22:00.680Z,90.9
2022-11-20T08:23:00.851Z,91
2022-11-20T08:24:00.975Z,91
2022-11-20T08:25:01.127Z,91
2022-11-20T08:26:00.270Z,91
2022-11-20T08:27:00.413Z,91
2022-11-20T08:28:02.162Z,90.9
2022-11-20T08:29:00.723Z,90.9
2022-11-20T08:30:00.854Z,90.9
2022-11-20T08:31:01.003Z,90.8
2022-11-20T08:32:01.150Z,90.9
2022-11-20T08:33:00.300Z,90.9
2022-11-20T08:34:00.474Z,90.8
2022-11-20T08:35:00.596Z,90.8
2022-11-20T08:36:00.749Z,90.9
2022-11-20T08:37:00.891Z,90.9
2022-11-20T08:38:01.041Z,90.9
2022-11-20T08:39:01.215Z,90.8
2022-11-20T08:40:00.335Z,90.8
2022-11-20T08:41:00.481Z,90.7
2022-11-20T08:42:00.640Z,90.7
2022-11-20T08:43:00.786Z,90.7
2022-11-20T08:44:00.950Z,90.7
2022-11-20T08:45:01.094Z,90.7
2022-11-20T08:46:01.224Z,90.7
2022-11-20T08:47:00.366Z,90.5
2022-11-20T08:48:00.547Z,90.5
2022-11-20T08:49:00.650Z,90.3
2022-11-20T08:50:00.804Z,90.3
2022-11-20T08:51:00.959Z,90.3
2022-11-20T08:52:01.098Z,90.3
2022-11-20T08:53:01.267Z,90.2
2022-11-20T08:54:00.410Z,90.1
2022-11-20T08:55:00.565Z,90.1
2022-11-20T08:56:00.715Z,90.1
2022-11-20T08:57:00.860Z,90.2
2022-11-20T08:58:01.034Z,90.3
2022-11-20T08:59:31.304Z,90.2
2022-11-20T09:00:06.919Z,90.3
2022-11-20T09:01:00.490Z,90.3
2022-11-20T09:02:00.617Z,90.3
2022-11-20T09:03:00.758Z,90.3
2022-11-20T09:04:00.928Z,90.3
2022-11-20T09:05:01.048Z,90.3
2022-11-20T09:06:01.209Z,90.4
2022-11-20T09:07:00.413Z,90.4
2022-11-20T09:08:00.498Z,90.3
2022-11-20T09:09:06.162Z,90.3
2022-11-20T09:10:22.595Z,90.3
2022-11-20T09:11:00.936Z,90.3
2022-11-20T09:12:01.076Z,90.4
2022-11-20T09:13:01.229Z,90.4
2022-11-20T09:14:00.384Z,90.4
2022-11-20T09:15:00.551Z,90.3
2022-11-20T09:16:00.677Z,90.4
2022-11-20T09:17:00.832Z,90.4
2022-11-20T09:18:00.975Z,90.2
2022-11-20T09:19:34.203Z,90.2
2022-11-20T09:20:00.295Z,90.3
2022-11-20T09:21:00.476Z,90.3
2022-11-20T09:22:00.561Z,90.2
2022-11-20T09:23:00.716Z,90.1
2022-11-20T09:24:00.865Z,90.1
2022-11-20T09:25:01.025Z,90.2
2022-11-20T09:26:01.146Z,90.1
2022-11-20T09:27:00.295Z,90.1
2022-11-20T09:28:00.455Z,90.1
2022-11-20T09:29:00.589Z,90
2022-11-20T09:30:00.758Z,90
2022-11-20T09:31:00.886Z,89.9
2022-11-20T09:32:01.032Z,89.8
2022-11-20T09:33:01.171Z,89.7
2022-11-20T09:34:00.329Z,89.6
2022-11-20T09:36:00.619Z,89.4
2022-11-20T09:37:03.149Z,89.4
2022-11-20T09:38:00.909Z,89.5
2022-11-20T09:39:01.067Z,89.5
2022-11-20T09:40:01.237Z,89.5
2022-11-20T09:41:00.350Z,89.5
2022-11-20T09:42:00.503Z,89.6
2022-11-20T09:43:00.638Z,89.7
2022-11-20T09:44:00.796Z,89.7
2022-11-20T09:45:00.951Z,89.6
2022-11-20T09:46:01.106Z,89.6
2022-11-20T09:47:01.228Z,89.4
2022-11-20T09:48:00.372Z,89.3
2022-11-20T09:49:00.518Z,89.3
2022-11-20T09:50:00.685Z,89.4
2022-11-20T09:51:00.816Z,89.4
2022-11-20T09:52:00.974Z,89.5
2022-11-20T09:53:01.127Z,89.6
2022-11-20T09:54:01.256Z,89.6
2022-11-20T09:55:00.429Z,89.6
2022-11-20T09:56:00.581Z,89.5
2022-11-20T09:57:00.745Z,89.4
2022-11-20T09:58:00.865Z,89.4
2022-11-20T09:59:01.020Z,89.4
2022-11-20T10:00:01.150Z,89.4
2022-11-20T10:01:00.368Z,89.4
2022-11-20T10:02:00.446Z,89.5
2022-11-20T10:03:00.609Z,89.5
2022-11-20T10:04:00.748Z,89.4
2022-11-20T10:05:00.896Z,89.4
2022-11-20T10:06:01.061Z,89.4
2022-11-20T10:07:29.842Z,89.3
2022-11-20T10:08:00.369Z,89.3
2022-11-20T10:09:00.473Z,89.4
2022-11-20T10:10:00.636Z,89.4
2022-11-20T10:11:00.800Z,89.4
2022-11-20T10:12:00.928Z,89.3
2022-11-20T10:13:01.076Z,89.4
2022-11-20T10:14:01.225Z,89.5
2022-11-20T10:15:00.375Z,89.5
2022-11-20T10:16:00.533Z,89.5
2022-11-20T10:17:00.686Z,89.5
2022-11-20T10:18:00.813Z,89.5
2022-11-20T10:19:00.965Z,89.5
2022-11-20T10:20:01.109Z,89.5
2022-11-20T10:21:00.253Z,89.6
2022-11-20T10:22:00.432Z,89.7
2022-11-20T10:23:00.560Z,89.8
2022-11-20T10:24:00.711Z,89.9
2022-11-20T10:25:00.862Z,89.9
2022-11-20T10:26:01.015Z,90
2022-11-20T10:27:01.162Z,90.1
2022-11-20T10:28:00.300Z,90.1
2022-11-20T10:29:03.438Z,90.1
2022-11-20T10:30:00.627Z,90.1
2022-11-20T10:31:00.778Z,90.1
2022-11-20T10:32:00.937Z,90.1
2022-11-20T10:33:01.111Z,90.1
2022-11-20T10:34:12.619Z,90.1
2022-11-20T10:35:00.381Z,90
2022-11-20T10:36:00.529Z,90.1
2022-11-20T10:37:00.671Z,90.1
2022-11-20T10:38:00.840Z,90.2
2022-11-20T10:39:00.970Z,90.2
2022-11-20T10:40:01.137Z,90.2
2022-11-20T10:41:00.282Z,90.2
2022-11-20T10:42:00.436Z,90.2
2022-11-20T10:43:00.617Z,90.1
2022-11-20T10:44:00.725Z,90
2022-11-20T10:45:04.401Z,90
2022-11-20T10:46:01.014Z,90
2022-11-20T10:47:01.166Z,90
2022-11-20T10:48:00.334Z,89.9
2022-11-20T10:49:00.468Z,89.9
2022-11-20T10:50:00.603Z,90
2022-11-20T10:51:00.750Z,89.9
2022-11-20T10:52:00.900Z,89.8
2022-11-20T10:53:01.056Z,89.7
2022-11-20T10:54:01.214Z,89.6
2022-11-20T10:55:00.338Z,89.6
2022-11-20T10:56:00.489Z,89.4
2022-11-20T10:57:00.636Z,89.3
2022-11-20T10:58:00.828Z,89.2
2022-11-20T10:59:00.951Z,89.2
2022-11-20T11:00:01.104Z,89.1
2022-11-20T11:01:01.262Z,89
2022-11-20T11:02:03.213Z,88.8
2022-11-20T11:03:00.569Z,88.7
2022-11-20T11:04:00.695Z,88.5
2022-11-20T11:05:00.844Z,88.3
2022-11-20T11:06:00.997Z,88.3
2022-11-20T11:07:01.227Z,88.3
2022-11-20T11:08:00.306Z,88.2
2022-11-20T11:09:00.430Z,88.3
2022-11-20T11:10:00.576Z,88.3
2022-11-20T11:11:00.722Z,88.2
2022-11-20T11:12:06.786Z,88.1
2022-11-20T11:13:01.049Z,88
2022-11-20T11:14:01.161Z,88.1
2022-11-20T11:15:00.302Z,88.2
2022-11-20T11:16:00.455Z,88.3
2022-11-20T11:17:00.597Z,88.4
2022-11-20T11:18:00.773Z,88.5
2022-11-20T11:19:00.893Z,88.6
2022-11-20T11:20:01.080Z,88.7
2022-11-20T11:21:01.215Z,88.7
2022-11-20T11:22:00.349Z,88.6
2022-11-20T11:23:00.558Z,88.4
2022-11-20T11:24:19.596Z,88.3
2022-11-20T11:25:00.813Z,88.3
2022-11-20T11:26:00.969Z,88.3
2022-11-20T11:27:01.118Z,88.2
2022-11-20T11:28:00.278Z,88.2
2022-11-20T11:29:00.410Z,88.1
2022-11-20T11:30:00.552Z,88
2022-11-20T11:31:00.702Z,88
2022-11-20T11:32:00.854Z,87.9
2022-11-20T11:33:01.027Z,88
2022-11-20T11:34:01.146Z,88.1
2022-11-20T11:35:00.302Z,88.2
2022-11-20T11:36:00.449Z,88.1
2022-11-20T11:37:00.595Z,88.1
2022-11-20T11:38:00.770Z,88.1
2022-11-20T11:39:00.898Z,88.1
2022-11-20T11:40:23.473Z,88.1
2022-11-20T11:41:01.185Z,88.1
2022-11-20T11:42:00.319Z,88.2
2022-11-20T11:43:00.491Z,88.1
2022-11-20T11:44:00.609Z,88.1
2022-11-20T11:45:00.761Z,88.1
2022-11-20T11:46:00.907Z,88.2
2022-11-20T11:47:01.040Z,88.3
2022-11-20T11:48:01.196Z,88.3
2022-11-20T11:49:00.338Z,88.2
2022-11-20T11:50:00.503Z,88.1
2022-11-20T11:51:00.654Z,88.2
2022-11-20T11:52:00.771Z,88.2
2022-11-20T11:53:00.921Z,88.1
2022-11-20T11:54:01.068Z,88.1
2022-11-20T11:55:01.212Z,88.1
2022-11-20T11:56:00.380Z,88.1
2022-11-20T11:57:00.532Z,88.2
2022-11-20T11:58:00.650Z,88.3
2022-11-20T11:59:00.809Z,88.3
2022-11-20T12:00:00.964Z,88.3
2022-11-20T12:01:01.110Z,88.2
2022-11-20T12:02:01.288Z,88.1
2022-11-20T12:03:00.423Z,88
2022-11-20T12:04:00.549Z,88.1
2022-11-20T12:05:00.686Z,88.1
2022-11-20T12:06:00.833Z,88.1
2022-11-20T12:07:09.212Z,88.1
2022-11-20T12:08:01.199Z,88.1
2022-11-20T12:09:00.305Z,88.2
2022-11-20T12:10:00.448Z,88.3
2022-11-20T12:11:00.592Z,88.4
2022-11-20T12:12:00.724Z,88.3
2022-11-20T12:13:00.876Z,88.4
2022-11-20T12:14:01.013Z,88.4
2022-11-20T12:15:01.143Z,88.6
2022-11-20T12:16:00.295Z,88.7
2022-11-20T12:17:00.444Z,88.7
2022-11-20T12:18:00.615Z,88.6
2022-11-20T12:19:00.731Z,88.4
2022-11-20T12:20:00.873Z,88.3
2022-11-20T12:21:01.029Z,88.4
2022-11-20T12:22:03.396Z,88.5
2022-11-20T12:23:00.339Z,88.6
2022-11-20T12:24:00.470Z,88.7
2022-11-20T12:25:00.612Z,88.6
2022-11-20T12:26:00.773Z,88.6
2022-11-20T12:27:00.922Z,88.4
2022-11-20T12:28:01.088Z,88.4
2022-11-20T12:29:01.211Z,88.4
2022-11-20T12:30:00.354Z,88.6
2022-11-20T12:31:00.505Z,88.7
2022-11-20T12:32:00.652Z,88.7
2022-11-20T12:33:00.822Z,88.7
2022-11-20T12:34:00.961Z,88.8
2022-11-20T12:35:01.122Z,88.8
2022-11-20T12:37:00.365Z,88.8
2022-11-20T12:38:00.523Z,88.7
2022-11-20T12:39:00.667Z,88.7
2022-11-20T12:40:00.817Z,88.7
2022-11-20T12:41:00.956Z,88.6
2022-11-20T12:42:01.107Z,88.5
2022-11-20T12:43:01.250Z,88.5
2022-11-20T12:44:00.392Z,88.4
2022-11-20T12:45:00.559Z,88.4
2022-11-20T12:46:00.691Z,88.5
2022-11-20T12:47:00.845Z,88.6
2022-11-20T12:48:01.011Z,88.7
2022-11-20T12:49:01.171Z,88.6
2022-11-20T12:50:00.297Z,88.8
2022-11-20T12:51:14.700Z,88.7
2022-11-20T12:52:00.610Z,88.7
2022-11-20T12:53:00.754Z,88.7
2022-11-20T12:54:00.919Z,88.5
2022-11-20T12:55:01.064Z,88.7
2022-11-20T12:56:01.194Z,88.7
2022-11-20T12:57:03.758Z,88.6
2022-11-20T12:58:00.490Z,88.5
2022-11-20T12:59:00.656Z,88.5
2022-11-20T13:00:00.789Z,88.5
2022-11-20T13:01:01.027Z,88.8
2022-11-20T13:02:01.097Z,88.8
2022-11-20T13:03:01.242Z,88.9
2022-11-20T13:04:00.430Z,88.9
2022-11-20T13:05:00.552Z,88.9
2022-11-20T13:06:00.699Z,88.9
2022-11-20T13:07:00.889Z,88.9
2022-11-20T13:08:01.000Z,88.9
2022-11-20T13:09:01.165Z,88.8
2022-11-20T13:10:00.290Z,88.6
2022-11-20T13:11:00.446Z,88.7
2022-11-20T13:12:00.593Z,88.7
2022-11-20T13:13:00.736Z,88.7
2022-11-20T13:14:00.905Z,88.6
2022-11-20T13:15:01.044Z,88.7
2022-11-20T13:16:01.189Z,88.8
2022-11-20T13:17:05.740Z,88.7
2022-11-20T13:18:00.474Z,88.7
2022-11-20T13:19:00.640Z,88.7
2022-11-20T13:20:00.765Z,88.7
2022-11-20T13:21:00.924Z,88.7
2022-11-20T13:22:01.072Z,88.9
2022-11-20T13:23:01.224Z,88.9
2022-11-20T13:24:00.383Z,88.9
2022-11-20T13:25:00.507Z,88.8